createdAt,value
2017-10-24T00:02:20.307Z,10.14
2017-10-24T00:04:47.942Z,10.06
2017-10-24T00:07:15.837Z,10.09
2017-10-24T00:09:43.706Z,10.12
2017-10-24T00:12:11.317Z,10.20
2017-10-24T00:14:38.905Z,10.18
2017-10-24T00:17:06.541Z,10.21
2017-10-24T00:19:34.134Z,10.25
2017-10-24T00:22:01.713Z,10.24
2017-10-24T00:24:29.586Z,10.30
2017-10-24T00:26:57.172Z,10.37
2017-10-24T00:29:24.837Z,10.19
2017-10-24T00:31:52.438Z,10.05
2017-10-24T00:34:20.031Z,9.97
2017-10-24T00:36:47.999Z,9.90
2017-10-24T00:39:15.590Z,9.86
2017-10-24T00:41:43.208Z,9.94
2017-10-24T00:44:10.792Z,10.00
2017-10-24T00:46:38.377Z,10.03
2017-10-24T00:49:06.033Z,10.08
2017-10-24T00:51:33.616Z,10.11
2017-10-24T00:54:01.236Z,10.15
2017-10-24T00:56:28.819Z,10.14
2017-10-24T00:58:56.413Z,10.09
2017-10-24T01:01:24.023Z,10.10
2017-10-24T01:03:51.985Z,10.10
2017-10-24T01:06:19.612Z,10.08
2017-10-24T01:08:47.197Z,10.07
2017-10-24T01:11:15.077Z,10.04
2017-10-24T01:13:42.690Z,10.04
2017-10-24T01:16:10.609Z,10.02
2017-10-24T01:18:38.224Z,10.00
2017-10-24T01:21:05.814Z,10.02
2017-10-24T01:23:33.395Z,9.95
2017-10-24T01:26:01.007Z,9.90
2017-10-24T01:28:28.925Z,9.90
2017-10-24T01:30:56.548Z,9.92
2017-10-24T01:33:24.154Z,9.89
2017-10-24T01:35:51.744Z,9.90
2017-10-24T01:38:19.680Z,9.84
2017-10-24T01:40:47.254Z,9.73
2017-10-24T01:43:14.840Z,9.71
2017-10-24T01:45:42.482Z,9.62
2017-10-24T01:48:10.081Z,9.69
2017-10-24T01:50:37.662Z,9.76
2017-10-24T01:53:05.284Z,9.86
2017-10-24T01:55:32.861Z,9.94
2017-10-24T01:58:00.452Z,10.01
2017-10-24T02:00:28.066Z,10.06
2017-10-24T02:02:55.688Z,10.15
2017-10-24T02:05:23.326Z,10.17
2017-10-24T02:07:50.908Z,10.16
2017-10-24T02:10:18.519Z,10.17
2017-10-24T02:12:46.152Z,10.16
2017-10-24T02:15:13.749Z,10.11
2017-10-24T02:17:41.369Z,10.18
2017-10-24T02:20:08.974Z,10.09
2017-10-24T02:22:36.563Z,10.09
2017-10-24T02:25:04.172Z,10.03
2017-10-24T02:27:31.761Z,10.08
2017-10-24T02:30:00.402Z,10.02
2017-10-24T02:32:27.979Z,9.99
2017-10-24T02:34:55.606Z,10.00
2017-10-24T02:37:23.184Z,9.98
2017-10-24T02:39:51.054Z,9.92
2017-10-24T02:42:18.681Z,9.90
2017-10-24T02:44:46.260Z,9.87
2017-10-24T02:47:13.878Z,9.91
2017-10-24T02:49:41.456Z,9.91
2017-10-24T02:52:09.049Z,9.92
2017-10-24T02:54:36.658Z,9.89
2017-10-24T02:57:04.967Z,9.93
2017-10-24T02:59:32.865Z,9.99
2017-10-24T03:02:00.733Z,10.05
2017-10-24T03:04:28.605Z,10.09
2017-10-24T03:06:56.215Z,10.05
2017-10-24T03:09:23.789Z,9.98
2017-10-24T03:11:51.417Z,10.05
2017-10-24T03:14:18.997Z,10.05
2017-10-24T03:16:46.597Z,10.07
2017-10-24T03:19:14.490Z,10.00
2017-10-24T03:21:42.150Z,10.01
2017-10-24T03:24:09.776Z,10.09
2017-10-24T03:26:37.676Z,10.10
2017-10-24T03:29:05.302Z,10.02
2017-10-24T03:31:32.888Z,9.92
2017-10-24T03:34:00.467Z,9.98
2017-10-24T03:36:28.079Z,10.02
2017-10-24T03:38:55.664Z,10.06
2017-10-24T03:41:23.281Z,10.08
2017-10-24T03:43:50.862Z,10.13
2017-10-24T03:46:18.442Z,10.11
2017-10-24T03:48:46.062Z,10.13
2017-10-24T03:51:13.676Z,10.11
2017-10-24T03:53:41.303Z,10.14
2017-10-24T03:56:08.891Z,10.18
2017-10-24T03:58:36.477Z,10.26
2017-10-24T04:01:04.093Z,10.26
2017-10-24T04:03:31.702Z,10.24
2017-10-24T04:05:59.328Z,10.23
2017-10-24T04:08:26.918Z,10.26
2017-10-24T04:10:54.590Z,10.26
2017-10-24T04:13:22.212Z,10.26
2017-10-24T04:15:50.121Z,10.23
2017-10-24T04:18:18.108Z,10.20
2017-10-24T04:20:45.956Z,10.21
2017-10-24T04:23:13.541Z,10.25
2017-10-24T04:25:41.149Z,10.25
2017-10-24T04:28:08.744Z,10.24
2017-10-24T04:30:36.353Z,10.23
2017-10-24T04:33:04.274Z,10.23
2017-10-24T04:35:31.868Z,10.26
2017-10-24T04:37:59.498Z,10.26
2017-10-24T04:40:27.077Z,10.25
2017-10-24T04:42:55.032Z,10.25
2017-10-24T04:45:22.617Z,10.28
2017-10-24T04:47:50.211Z,10.32
2017-10-24T04:50:17.831Z,10.36
2017-10-24T04:52:45.464Z,10.33
2017-10-24T04:55:13.106Z,10.36
2017-10-24T04:57:40.711Z,10.36
2017-10-24T05:00:08.298Z,10.36
2017-10-24T05:02:35.912Z,10.39
2017-10-24T05:05:03.502Z,10.42
2017-10-24T05:07:31.145Z,10.38
2017-10-24T05:09:58.728Z,10.41
2017-10-24T05:12:26.318Z,10.42
2017-10-24T05:14:53.948Z,10.40
2017-10-24T05:17:21.569Z,10.37
2017-10-24T05:19:49.196Z,10.38
2017-10-24T05:22:16.785Z,10.38
2017-10-24T05:24:44.369Z,10.39
2017-10-24T05:27:11.993Z,10.39
2017-10-24T05:29:39.588Z,10.41
2017-10-24T05:32:07.229Z,10.42
2017-10-24T05:34:34.810Z,10.44
2017-10-24T05:37:02.701Z,10.43
2017-10-24T05:39:30.333Z,10.43
2017-10-24T05:41:57.916Z,10.44
2017-10-24T05:44:25.785Z,10.44
2017-10-24T05:46:53.388Z,10.44
2017-10-24T05:49:20.988Z,10.45
2017-10-24T05:51:48.604Z,10.44
2017-10-24T05:54:16.216Z,10.44
2017-10-24T05:56:43.854Z,10.42
2017-10-24T05:59:12.288Z,10.38
2017-10-24T06:01:39.888Z,10.34
2017-10-24T06:04:07.505Z,10.29
2017-10-24T06:06:35.168Z,10.29
2017-10-24T06:09:03.937Z,10.29
2017-10-24T06:11:31.705Z,10.31
2017-10-24T06:13:59.584Z,10.36
2017-10-24T06:16:27.192Z,10.30
2017-10-24T06:18:55.013Z,10.28
2017-10-24T06:21:22.985Z,10.27
2017-10-24T06:23:50.569Z,10.30
2017-10-24T06:26:18.202Z,10.33
2017-10-24T06:28:45.829Z,10.38
2017-10-24T06:31:13.425Z,10.39
2017-10-24T06:33:41.060Z,10.43
2017-10-24T06:36:08.962Z,10.41
2017-10-24T06:38:36.835Z,10.45
2017-10-24T06:41:04.449Z,10.49
2017-10-24T06:43:32.054Z,10.50
2017-10-24T06:45:59.685Z,10.44
2017-10-24T06:48:27.590Z,10.48
2017-10-24T06:50:55.457Z,10.48
2017-10-24T06:53:23.061Z,10.47
2017-10-24T06:55:50.659Z,10.52
2017-10-24T06:58:18.285Z,10.56
2017-10-24T07:00:45.899Z,10.61
2017-10-24T07:03:13.487Z,10.70
2017-10-24T07:05:41.104Z,10.70
2017-10-24T07:08:08.722Z,10.72
2017-10-24T07:10:36.356Z,10.78
2017-10-24T07:13:03.971Z,10.76
2017-10-24T07:15:31.563Z,10.80
2017-10-24T07:17:59.198Z,10.86
2017-10-24T07:20:26.817Z,10.90
2017-10-24T07:22:54.441Z,10.82
2017-10-24T07:25:22.021Z,10.87
2017-10-24T07:27:49.622Z,10.95
2017-10-24T07:30:17.238Z,10.98
2017-10-24T07:32:44.826Z,11.06
2017-10-24T07:35:12.461Z,11.06
2017-10-24T07:37:40.075Z,11.06
2017-10-24T07:40:07.671Z,11.05
2017-10-24T07:42:35.291Z,11.05
2017-10-24T07:45:02.895Z,11.04
2017-10-24T07:47:30.520Z,11.03
2017-10-24T07:49:58.109Z,11.04
2017-10-24T07:52:25.704Z,10.98
2017-10-24T07:54:53.312Z,10.98
2017-10-24T07:57:20.901Z,10.96
2017-10-24T07:59:48.495Z,11.00
2017-10-24T08:02:16.132Z,10.97
2017-10-24T08:04:43.727Z,11.02
2017-10-24T08:07:11.313Z,11.04
2017-10-24T08:09:39.243Z,11.09
2017-10-24T08:12:06.838Z,11.13
2017-10-24T08:14:34.664Z,11.16
2017-10-24T08:17:02.298Z,11.21
2017-10-24T08:19:29.897Z,11.26
2017-10-24T08:21:57.512Z,11.29
2017-10-24T08:24:25.118Z,11.31
2017-10-24T08:26:53.100Z,11.42
2017-10-24T08:29:20.751Z,11.43
2017-10-24T08:31:48.348Z,11.48
2017-10-24T08:34:16.017Z,11.52
2017-10-24T08:36:43.622Z,11.60
2017-10-24T08:39:11.243Z,11.67
2017-10-24T08:41:38.965Z,11.70
2017-10-24T08:44:06.568Z,11.72
2017-10-24T08:46:34.192Z,11.64
2017-10-24T08:49:01.777Z,11.67
2017-10-24T08:51:29.365Z,11.67
2017-10-24T08:53:56.995Z,11.72
2017-10-24T08:56:24.589Z,11.80
2017-10-24T08:58:52.498Z,11.89
2017-10-24T09:01:26.869Z,12.03
2017-10-24T09:03:54.500Z,12.18
2017-10-24T09:06:37.632Z,12.23
2017-10-24T09:12:04.932Z,12.52
2017-10-24T09:14:32.853Z,12.63
2017-10-24T09:17:04.849Z,12.64
2017-10-24T09:22:26.399Z,12.66
2017-10-24T09:24:54.034Z,12.89
2017-10-24T09:27:21.621Z,12.93
2017-10-24T09:29:49.229Z,13.16
2017-10-24T09:32:16.901Z,13.19
2017-10-24T09:34:44.584Z,13.29
2017-10-24T09:37:12.205Z,13.46
2017-10-24T09:39:39.831Z,13.53
2017-10-24T09:42:07.474Z,13.48
2017-10-24T09:44:35.090Z,13.30
2017-10-24T09:47:02.970Z,13.07
2017-10-24T09:49:30.857Z,13.05
2017-10-24T09:51:58.456Z,12.99
2017-10-24T09:54:26.105Z,12.96
2017-10-24T09:56:53.691Z,13.01
2017-10-24T09:59:40.164Z,12.99
2017-10-24T10:02:07.752Z,13.04
2017-10-24T10:04:35.350Z,13.10
2017-10-24T10:07:05.755Z,13.07
2017-10-24T10:09:33.352Z,13.08
2017-10-24T10:12:00.972Z,13.08
2017-10-24T10:14:28.573Z,13.10
2017-10-24T10:16:56.175Z,13.12
2017-10-24T10:19:23.810Z,12.96
2017-10-24T10:21:54.160Z,12.93
2017-10-24T10:24:29.786Z,12.97
2017-10-24T10:26:57.385Z,13.00
2017-10-24T10:29:24.980Z,12.87
2017-10-24T10:31:52.605Z,12.91
2017-10-24T10:34:20.198Z,13.01
2017-10-24T10:36:47.829Z,13.01
2017-10-24T10:39:15.416Z,12.97
2017-10-24T10:41:43.058Z,13.03
2017-10-24T10:44:10.676Z,13.05
2017-10-24T10:46:38.281Z,13.09
2017-10-24T10:49:05.950Z,13.09
2017-10-24T10:51:33.569Z,13.04
2017-10-24T10:54:01.160Z,12.93
2017-10-24T10:56:28.794Z,12.81
2017-10-24T10:58:56.652Z,12.82
2017-10-24T11:01:24.278Z,12.88
2017-10-24T11:03:51.898Z,12.84
2017-10-24T11:06:19.487Z,12.82
2017-10-24T11:08:47.136Z,12.82
2017-10-24T11:11:14.723Z,12.82
2017-10-24T11:13:42.349Z,13.02
2017-10-24T11:16:09.976Z,13.25
2017-10-24T11:18:37.857Z,13.40
2017-10-24T11:21:05.476Z,13.58
2017-10-24T11:23:33.080Z,13.71
2017-10-24T11:26:00.737Z,13.92
2017-10-24T11:28:28.350Z,13.96
2017-10-24T11:30:55.973Z,13.98
2017-10-24T11:33:23.616Z,14.09
2017-10-24T11:35:51.711Z,14.09
2017-10-24T11:38:19.374Z,13.94
2017-10-24T11:40:46.967Z,13.85
2017-10-24T11:43:14.596Z,13.53
2017-10-24T11:45:42.212Z,13.56
2017-10-24T11:48:09.802Z,13.66
2017-10-24T11:50:37.429Z,13.73
2017-10-24T11:53:05.024Z,13.78
2017-10-24T11:55:32.604Z,13.68
2017-10-24T11:58:00.233Z,13.69
2017-10-24T12:00:27.845Z,13.89
2017-10-24T12:02:55.791Z,14.04
2017-10-24T12:05:23.387Z,14.13
2017-10-24T12:07:50.995Z,14.20
2017-10-24T12:10:18.625Z,14.38
2017-10-24T12:12:46.224Z,14.52
2017-10-24T12:15:14.219Z,14.40
2017-10-24T12:17:41.858Z,14.51
2017-10-24T12:20:09.494Z,14.46
2017-10-24T12:22:37.205Z,14.33
2017-10-24T12:25:04.839Z,14.27
2017-10-24T12:27:32.481Z,14.38
2017-10-24T12:30:00.125Z,14.45
2017-10-24T12:32:27.713Z,14.73
2017-10-24T12:34:55.352Z,14.96
2017-10-24T12:37:22.990Z,15.09
2017-10-24T12:39:50.628Z,14.93
2017-10-24T12:42:18.808Z,14.90
2017-10-24T12:44:46.918Z,14.96
2017-10-24T12:47:15.052Z,15.13
2017-10-24T12:50:02.481Z,14.99
2017-10-24T12:52:30.094Z,14.92
2017-10-24T12:54:57.689Z,14.86
2017-10-24T12:57:25.814Z,14.75
2017-10-24T12:59:53.932Z,14.76
2017-10-24T13:02:21.540Z,14.83
2017-10-24T13:04:49.181Z,14.66
2017-10-24T13:07:16.776Z,14.71
2017-10-24T13:09:44.815Z,14.87
2017-10-24T13:12:12.407Z,14.86
2017-10-24T13:14:40.020Z,14.93
2017-10-24T13:17:07.644Z,15.05
2017-10-24T13:19:35.263Z,15.01
2017-10-24T13:22:02.901Z,14.97
2017-10-24T13:24:30.492Z,15.02
2017-10-24T13:26:58.082Z,14.94
2017-10-24T13:29:25.699Z,14.83
2017-10-24T13:31:53.294Z,14.73
2017-10-24T13:34:20.920Z,14.70
2017-10-24T13:36:48.508Z,14.64
2017-10-24T13:39:16.105Z,14.77
2017-10-24T13:41:43.730Z,14.81
2017-10-24T13:44:11.341Z,14.82
2017-10-24T13:46:39.255Z,14.83
2017-10-24T13:49:06.888Z,14.77
2017-10-24T13:51:34.790Z,14.70
2017-10-24T13:54:02.425Z,14.75
2017-10-24T13:56:30.014Z,14.81
2017-10-24T13:58:57.642Z,14.79
2017-10-24T14:01:25.251Z,14.70
2017-10-24T14:03:52.844Z,14.63
2017-10-24T14:06:26.056Z,14.65
2017-10-24T14:08:59.481Z,14.64
2017-10-24T14:11:27.104Z,14.66
2017-10-24T14:13:54.696Z,14.63
2017-10-24T14:16:22.365Z,14.55
2017-10-24T14:18:49.965Z,14.60
2017-10-24T14:21:17.560Z,14.62
2017-10-24T14:23:45.202Z,14.52
2017-10-24T14:26:12.788Z,14.53
2017-10-24T14:28:40.427Z,14.49
2017-10-24T14:31:08.016Z,14.41
2017-10-24T14:33:35.906Z,14.36
2017-10-24T14:36:03.549Z,14.33
2017-10-24T14:38:31.181Z,14.26
2017-10-24T14:40:58.880Z,14.30
2017-10-24T14:43:26.494Z,14.24
2017-10-24T14:45:54.084Z,14.34
2017-10-24T14:48:21.718Z,14.27
2017-10-24T14:50:49.305Z,14.25
2017-10-24T14:53:16.937Z,14.26
2017-10-24T14:55:44.528Z,14.22
2017-10-24T14:58:12.253Z,14.21
2017-10-24T15:00:39.889Z,14.18
2017-10-24T15:03:07.547Z,14.20
2017-10-24T15:05:35.194Z,14.19
2017-10-24T15:08:02.918Z,14.15
2017-10-24T15:10:30.581Z,14.19
2017-10-24T15:12:58.216Z,14.15
2017-10-24T15:15:25.816Z,14.16
2017-10-24T15:17:53.743Z,14.14
2017-10-24T15:20:21.352Z,14.13
2017-10-24T15:22:48.962Z,14.10
2017-10-24T15:25:16.616Z,14.07
2017-10-24T15:27:44.224Z,14.10
2017-10-24T15:30:11.958Z,14.07
2017-10-24T15:32:39.576Z,14.02
2017-10-24T15:35:07.169Z,14.03
2017-10-24T15:37:35.056Z,13.99
2017-10-24T15:40:02.643Z,13.99
2017-10-24T15:42:30.238Z,13.98
2017-10-24T15:44:57.887Z,14.04
2017-10-24T15:47:25.514Z,14.01
2017-10-24T15:49:53.109Z,13.99
2017-10-24T15:52:20.762Z,13.98
2017-10-24T15:54:48.374Z,13.93
2017-10-24T15:57:15.996Z,13.98
2017-10-24T15:59:43.595Z,13.94
2017-10-24T16:02:11.473Z,14.05
2017-10-24T16:04:39.080Z,13.98
2017-10-24T16:07:06.700Z,13.92
2017-10-24T16:09:34.668Z,13.91
2017-10-24T16:12:02.525Z,13.96
2017-10-24T16:14:30.127Z,13.93
2017-10-24T16:16:57.767Z,13.90
2017-10-24T16:19:25.351Z,13.89
2017-10-24T16:21:52.978Z,13.82
2017-10-24T16:24:20.578Z,13.82
2017-10-24T16:26:48.218Z,13.83
2017-10-24T16:29:15.848Z,13.81
2017-10-24T16:31:43.439Z,13.80
2017-10-24T16:34:11.097Z,13.80
2017-10-24T16:36:38.753Z,13.88
2017-10-24T16:39:06.335Z,13.80
2017-10-24T16:41:33.973Z,13.79
2017-10-24T16:44:01.562Z,13.75
2017-10-24T16:46:29.192Z,13.72
2017-10-24T16:48:56.784Z,13.74
2017-10-24T16:51:24.385Z,13.72
2017-10-24T16:53:52.009Z,13.77
2017-10-24T16:56:19.638Z,13.76
2017-10-24T16:58:47.516Z,13.73
2017-10-24T17:01:15.123Z,13.72
2017-10-24T17:03:42.731Z,13.75
2017-10-24T17:06:10.438Z,13.73
2017-10-24T17:08:38.043Z,13.77
2017-10-24T17:11:05.696Z,13.76
2017-10-24T17:13:33.292Z,13.79
2017-10-24T17:16:00.884Z,13.80
2017-10-24T17:18:28.514Z,13.76
2017-10-24T17:20:56.133Z,13.72
2017-10-24T17:23:24.052Z,13.74
2017-10-24T17:25:51.661Z,13.76
2017-10-24T17:28:19.265Z,13.72
2017-10-24T17:30:46.925Z,13.70
2017-10-24T17:33:14.525Z,13.67
2017-10-24T17:35:42.161Z,13.67
2017-10-24T17:38:09.752Z,13.64
2017-10-24T17:40:37.370Z,13.65
2017-10-24T17:43:04.997Z,13.62
2017-10-24T17:45:32.603Z,13.64
2017-10-24T17:48:00.241Z,13.61
2017-10-24T17:50:28.136Z,13.63
2017-10-24T17:52:55.729Z,13.64
2017-10-24T17:55:23.340Z,13.61
2017-10-24T17:57:50.929Z,13.60
2017-10-24T18:00:18.599Z,13.55
2017-10-24T18:02:46.202Z,13.56
2017-10-24T18:05:14.015Z,13.55
2017-10-24T18:07:41.641Z,13.56
2017-10-24T18:10:09.242Z,13.59
2017-10-24T18:12:36.913Z,13.62
2017-10-24T18:15:04.513Z,13.65
2017-10-24T18:17:32.136Z,13.64
2017-10-24T18:19:59.772Z,13.66
2017-10-24T18:22:27.371Z,13.75
2017-10-24T18:24:55.004Z,13.77
2017-10-24T18:27:22.595Z,13.77
2017-10-24T18:29:50.211Z,13.71
2017-10-24T18:32:17.905Z,13.79
2017-10-24T18:34:45.893Z,13.72
2017-10-24T18:37:13.549Z,13.63
2017-10-24T18:39:41.183Z,13.70
2017-10-24T18:42:08.767Z,13.65
2017-10-24T18:44:36.393Z,13.63
2017-10-24T18:47:04.488Z,13.63
2017-10-24T18:49:32.126Z,13.63
2017-10-24T18:51:59.791Z,13.58
2017-10-24T18:54:27.380Z,13.62
2017-10-24T18:56:55.346Z,13.64
2017-10-24T18:59:23.010Z,13.62
2017-10-24T19:01:50.639Z,13.70
2017-10-24T19:04:18.266Z,13.71
2017-10-24T19:06:45.877Z,13.72
2017-10-24T19:09:13.499Z,13.72
2017-10-24T19:11:41.160Z,13.72
2017-10-24T19:14:08.796Z,13.73
2017-10-24T19:16:36.394Z,13.76
2017-10-24T19:19:03.996Z,13.77
2017-10-24T19:21:32.121Z,13.80
2017-10-24T19:23:59.749Z,13.78
2017-10-24T19:26:27.455Z,13.73
2017-10-24T19:28:56.983Z,13.73
2017-10-24T19:31:24.815Z,13.75
2017-10-24T19:33:52.519Z,13.80
2017-10-24T19:36:20.107Z,13.75
2017-10-24T19:38:47.864Z,13.74
2017-10-24T19:41:16.005Z,13.75
2017-10-24T19:43:43.600Z,13.71
2017-10-24T19:46:13.778Z,13.72
2017-10-24T19:48:41.610Z,13.72
2017-10-24T19:51:09.301Z,13.70
2017-10-24T19:53:38.248Z,13.70
2017-10-24T19:56:05.846Z,13.79
2017-10-24T19:58:33.465Z,13.76
2017-10-24T20:01:01.078Z,13.80
2017-10-24T20:03:28.723Z,13.83
2017-10-24T20:05:56.674Z,13.73
2017-10-24T20:08:24.282Z,13.76
2017-10-24T20:10:51.991Z,13.75
2017-10-24T20:13:19.582Z,13.76
2017-10-24T20:15:47.213Z,13.75
2017-10-24T20:18:14.816Z,13.75
2017-10-24T20:20:42.399Z,13.74
2017-10-24T20:23:10.100Z,13.76
2017-10-24T20:25:37.731Z,13.81
2017-10-24T20:28:05.405Z,13.77
2017-10-24T20:30:33.085Z,13.79
2017-10-24T20:33:01.065Z,13.80
2017-10-24T20:35:28.728Z,13.84
2017-10-24T20:37:56.614Z,13.82
2017-10-24T20:40:24.309Z,13.80
2017-10-24T20:42:51.888Z,13.80
2017-10-24T20:45:19.547Z,13.77
2017-10-24T20:47:48.860Z,13.77
2017-10-24T20:50:17.819Z,13.71
2017-10-24T20:52:45.572Z,13.67
2017-10-24T20:55:22.937Z,13.70
2017-10-24T20:57:51.930Z,13.69
2017-10-24T21:00:19.516Z,13.73
2017-10-24T21:02:47.260Z,13.74
2017-10-24T21:05:14.896Z,13.78
2017-10-24T21:07:42.500Z,13.76
2017-10-24T21:10:10.194Z,13.78
2017-10-24T21:12:38.125Z,13.77
2017-10-24T21:15:05.717Z,13.75
2017-10-24T21:17:33.333Z,13.76
2017-10-24T21:20:07.381Z,13.74
2017-10-24T21:22:35.661Z,13.76
2017-10-24T21:25:03.739Z,13.81
2017-10-24T21:27:31.357Z,13.78
2017-10-24T21:29:59.179Z,13.79
2017-10-24T21:32:26.764Z,13.79
2017-10-24T21:34:54.417Z,13.84
2017-10-24T21:37:22.007Z,13.79
2017-10-24T21:39:49.605Z,13.77
2017-10-24T21:42:19.045Z,13.84
2017-10-24T21:44:46.636Z,13.82
2017-10-24T21:47:14.274Z,13.87
2017-10-24T21:49:41.869Z,13.88
2017-10-24T21:52:09.474Z,13.86
2017-10-24T21:54:37.108Z,13.81
2017-10-24T21:57:04.703Z,13.86
2017-10-24T21:59:32.326Z,13.84
2017-10-24T22:01:59.918Z,13.81
2017-10-24T22:04:27.513Z,13.77
2017-10-24T22:06:55.179Z,13.75
2017-10-24T22:09:23.071Z,13.77
2017-10-24T22:11:50.716Z,13.81
2017-10-24T22:14:18.316Z,13.76
2017-10-24T22:16:45.916Z,13.74
2017-10-24T22:19:13.532Z,13.78
2017-10-24T22:21:41.130Z,13.69
2017-10-24T22:24:08.747Z,13.65
2017-10-24T22:26:36.709Z,13.60
2017-10-24T22:29:04.297Z,13.59
2017-10-24T22:31:31.935Z,13.57
2017-10-24T22:33:59.538Z,13.53
2017-10-24T22:36:27.163Z,13.53
2017-10-24T22:38:54.746Z,13.57
2017-10-24T22:41:22.331Z,13.63
2017-10-24T22:43:50.250Z,13.64
2017-10-24T22:46:17.840Z,13.63
2017-10-24T22:48:45.678Z,13.60
2017-10-24T22:51:13.316Z,13.61
2017-10-24T22:53:40.896Z,13.60
2017-10-24T22:56:08.486Z,13.63
2017-10-24T22:58:36.102Z,13.64
2017-10-24T23:01:03.679Z,13.64
2017-10-24T23:03:31.298Z,13.63
2017-10-24T23:05:58.892Z,13.64
2017-10-24T23:08:26.472Z,13.63
2017-10-24T23:10:54.086Z,13.56
2017-10-24T23:13:21.664Z,13.51
2017-10-24T23:15:49.287Z,13.51
2017-10-24T23:18:16.880Z,13.46
2017-10-24T23:20:44.474Z,13.43
2017-10-24T23:23:12.090Z,13.50
2017-10-24T23:25:39.681Z,13.47
2017-10-24T23:28:07.307Z,13.42
2017-10-24T23:30:34.905Z,13.38
2017-10-24T23:33:02.494Z,13.33
2017-10-24T23:35:30.116Z,13.30
2017-10-24T23:37:58.017Z,13.32
2017-10-24T23:40:25.655Z,13.28
2017-10-24T23:42:53.235Z,13.28
2017-10-24T23:45:20.826Z,13.25
2017-10-24T23:47:48.445Z,13.28
2017-10-24T23:50:16.042Z,13.29
2017-10-24T23:52:43.663Z,13.25
2017-10-24T23:55:11.256Z,13.20
2017-10-24T23:57:39.116Z,13.17
